Time;durP1;ratioP1;P1;durP2;ratioP2;P2;SDS_P1;SDS_P2;PMS_P1;PMS_P2;Temp;Humidity;BMP_temperature;BMP_pressure;BME280_temperature;BME280_humidity;BME280_pressure;Samples;Min_cycle;Max_cycle;Signal;HPM_P1;HPM_P2
2022/07/20 00:01:24;;;;;;;6.95;3.90;;;;;;;18.17;84.64;100146.47;1738648;80;21523;-69
2022/07/20 00:03:50;;;;;;;4.58;4.17;;;;;;;18.21;85.14;100150.62;1737940;80;21610;-68
2022/07/20 00:06:17;;;;;;;6.60;4.12;;;;;;;18.21;85.14;100150.62;1747875;80;21516;-70
2022/07/20 00:11:30;;;;;;;7.05;4.60;;;;;;;18.12;84.93;100150.78;1722147;80;21435;-68
2022/07/20 00:13:59;;;;;;;3.67;3.35;;;;;;;18.08;85.25;100151.91;1737132;80;20943;-67
2022/07/20 00:16:29;;;;;;;3.50;3.20;;;;;;;18.09;85.33;100151.82;1724082;80;21538;-67
2022/07/20 00:18:57;;;;;;;3.98;3.55;;;;;;;18.10;85.20;100151.34;1731748;80;21431;-67
2022/07/20 00:21:24;;;;;;;4.97;3.75;;;;;;;18.17;84.96;100145.14;1724533;80;21739;-67
2022/07/20 00:23:51;;;;;;;5.17;4.03;;;;;;;18.17;84.96;100145.14;1732839;80;21518;-68
2022/07/20 00:26:19;;;;;;;9.45;4.12;;;;;;;18.18;85.10;100149.52;1721475;80;21444;-68
2022/07/20 00:28:46;;;;;;;4.20;3.83;;;;;;;18.16;84.96;100152.28;1720643;81;21428;-67
2022/07/20 00:31:12;;;;;;;5.15;4.33;;;;;;;18.13;85.03;100140.98;1729607;80;21499;-67
2022/07/20 00:33:39;;;;;;;4.05;3.75;;;;;;;18.09;85.34;100149.16;1735502;80;21918;-67
2022/07/20 00:36:06;;;;;;;4.37;3.98;;;;;;;18.07;85.32;100149.73;1737051;80;20952;-68
2022/07/20 00:38:33;;;;;;;5.95;3.83;;;;;;;18.05;85.31;100143.67;1734437;80;21432;-67
2022/07/20 00:41:00;;;;;;;3.53;3.23;;;;;;;18.04;85.41;100139.77;1732766;80;21062;-68
2022/07/20 00:43:26;;;;;;;4.40;4.00;;;;;;;18.10;85.38;100130.05;1727443;80;21601;-67
2022/07/20 00:45:53;;;;;;;4.10;3.77;;;;;;;18.10;85.38;100130.05;1724732;80;21857;-68
2022/07/20 00:48:19;;;;;;;4.67;3.92;;;;;;;18.12;84.69;100134.81;1716033;81;21540;-68
2022/07/20 00:50:46;;;;;;;5.22;4.05;;;;;;;18.04;84.87;100129.98;1731792;80;21447;-68
2022/07/20 00:53:13;;;;;;;4.58;4.10;;;;;;;18.07;84.84;100131.11;1721721;79;21544;-68
2022/07/20 00:55:39;;;;;;;8.15;3.62;;;;;;;17.96;85.16;100125.66;1723265;82;21463;-68
2022/07/20 00:58:07;;;;;;;;;;;;;;;17.96;85.16;100125.66;1747076;80;21423;-70
2022/07/20 01:00:34;;;;;;;4.35;3.95;;;;;;;17.97;85.31;100130.48;1737215;80;20450;-69
2022/07/20 01:03:00;;;;;;;8.53;4.40;;;;;;;17.97;85.19;100129.16;1728192;81;21432;-69
2022/07/20 01:05:27;;;;;;;5.47;4.17;;;;;;;17.98;85.03;100121.56;1753966;80;21654;-70
2022/07/20 01:07:53;;;;;;;4.40;4.10;;;;;;;17.94;85.02;100125.39;1729260;80;21530;-70
2022/07/20 01:10:20;;;;;;;6.37;3.70;;;;;;;17.98;85.05;100129.55;1729362;80;22315;-70
2022/07/20 01:12:49;;;;;;;5.80;4.10;;;;;;;17.93;85.22;100128.50;1733315;80;21507;-70
2022/07/20 01:15:17;;;;;;;4.30;3.95;;;;;;;17.83;85.62;100128.22;1739490;81;21511;-70
2022/07/20 01:17:44;;;;;;;5.00;4.08;;;;;;;17.81;85.71;100132.80;1742399;81;21467;-69
2022/07/20 01:20:15;;;;;;;5.37;3.47;;;;;;;17.87;85.69;100128.42;1729593;81;21534;-70
2022/07/20 01:22:44;;;;;;;3.98;3.65;;;;;;;17.99;85.35;100119.27;1738457;80;21689;-69
2022/07/20 01:25:11;;;;;;;5.35;4.33;;;;;;;17.99;85.35;100119.27;1730266;81;21507;-69
2022/07/20 01:27:38;;;;;;;5.65;3.95;;;;;;;17.94;85.09;100120.06;1724369;80;25612;-69
2022/07/20 01:30:07;;;;;;;6.15;4.08;;;;;;;17.96;85.06;100125.66;1736591;80;21599;-70
2022/07/20 01:32:33;;;;;;;7.25;3.98;;;;;;;18.02;84.72;100124.39;1722601;81;26769;-70
2022/07/20 01:35:00;;;;;;;6.70;4.15;;;;;;;18.01;84.50;100118.23;1730141;80;21708;-68
2022/07/20 01:37:28;;;;;;;4.22;3.60;;;;;;;17.80;84.82;100120.92;1734687;81;21637;-69
2022/07/20 01:39:54;;;;;;;;;;;;;;;17.80;85.29;100127.11;1732329;80;21408;-69
2022/07/20 01:42:22;;;;;;;7.83;3.77;;;;;;;17.82;84.88;100122.55;1725627;81;20461;-72
2022/07/20 01:44:48;;;;;;;5.30;3.60;;;;;;;17.75;84.93;100123.89;1718640;80;20983;-69
2022/07/20 01:47:15;;;;;;;4.95;3.85;;;;;;;17.75;84.73;100120.39;1743438;81;21897;-69
2022/07/20 01:49:43;;;;;;;3.85;3.58;;;;;;;17.77;84.67;100125.97;1729710;80;25641;-69
2022/07/20 01:52:10;;;;;;;4.97;3.80;;;;;;;17.77;84.46;100119.81;1732955;80;21978;-70
2022/07/20 01:54:36;;;;;;;6.15;3.77;;;;;;;17.76;84.55;100124.25;1728644;80;20934;-70
2022/07/20 01:57:03;;;;;;;3.62;3.33;;;;;;;17.76;84.73;100121.59;1732578;80;21597;-70
2022/07/20 01:59:30;;;;;;;3.62;3.40;;;;;;;17.71;84.58;100117.07;1732022;80;21684;-73
2022/07/20 02:01:57;;;;;;;4.15;3.60;;;;;;;17.74;84.41;100117.34;1738276;80;21420;-70
2022/07/20 02:04:24;;;;;;;3.83;3.33;;;;;;;17.75;84.40;100114.58;1737975;80;21484;-70
2022/07/20 02:06:51;;;;;;;4.00;3.70;;;;;;;17.93;84.02;100120.52;1742217;80;21514;-70
2022/07/20 02:09:17;;;;;;;4.72;3.62;;;;;;;18.02;83.16;100116.41;1739605;80;20994;-70
2022/07/20 02:11:44;;;;;;;4.45;3.12;;;;;;;18.20;82.70;100123.66;1733201;80;21889;-71
2022/07/20 02:14:11;;;;;;;3.52;3.20;;;;;;;17.85;83.22;100126.34;1735475;81;21420;-70
2022/07/20 02:16:37;;;;;;;3.80;3.50;;;;;;;17.86;83.47;100120.09;1745939;80;21431;-70
2022/07/20 02:19:04;;;;;;;4.28;3.30;;;;;;;18.07;82.76;100118.30;1743878;80;21514;-70
2022/07/20 02:21:31;;;;;;;5.33;3.15;;;;;;;18.08;82.15;100111.55;1749429;80;22630;-71
2022/07/20 02:23:59;;;;;;;4.12;3.47;;;;;;;17.89;82.32;100114.58;1745978;80;21423;-71
2022/07/20 02:26:25;;;;;;;3.15;2.85;;;;;;;18.17;81.64;100111.39;1744981;80;21439;-70
2022/07/20 02:28:52;;;;;;;5.40;3.37;;;;;;;18.26;80.48;100104.61;1747931;81;21484;-71
2022/07/20 02:31:19;;;;;;;5.42;3.50;;;;;;;18.25;79.89;100109.55;1735609;80;21476;-70
2022/07/20 02:33:46;;;;;;;4.55;3.58;;;;;;;18.35;79.51;100107.14;1749076;80;21471;-70
2022/07/20 02:36:13;;;;;;;5.10;2.85;;;;;;;18.19;79.07;100109.97;1749195;80;21800;-70
2022/07/20 02:38:39;;;;;;;3.77;3.45;;;;;;;18.13;79.14;100109.90;1726450;80;21454;-70
2022/07/20 02:41:07;;;;;;;3.80;3.20;;;;;;;18.22;78.80;100111.94;1747599;80;21550;-70
2022/07/20 02:43:34;;;;;;;3.25;2.98;;;;;;;18.28;78.65;100112.02;1744974;80;21533;-69
2022/07/20 02:46:01;;;;;;;3.98;2.90;;;;;;;18.28;78.54;100112.86;1741166;80;21537;-70
2022/07/20 02:48:28;;;;;;;4.15;2.95;;;;;;;18.18;78.95;100117.59;1737313;80;21490;-69
2022/07/20 02:50:55;;;;;;;5.17;3.40;;;;;;;18.18;78.95;100117.59;1736911;80;21053;-69
2022/07/20 02:53:22;;;;;;;3.50;3.20;;;;;;;18.04;79.76;100122.48;1740747;80;21002;-70
2022/07/20 02:55:50;;;;;;;3.62;3.08;;;;;;;18.18;79.54;100122.91;1732199;81;21116;-69
2022/07/20 02:58:16;;;;;;;3.15;2.85;;;;;;;18.28;79.24;100118.66;1739552;80;21072;-71
2022/07/20 03:00:43;;;;;;;3.15;2.95;;;;;;;18.35;78.74;100109.80;1741041;81;21949;-71
2022/07/20 03:03:10;;;;;;;3.50;3.20;;;;;;;18.36;78.71;100107.50;1745229;80;21604;-71
2022/07/20 03:05:37;;;;;;;4.00;3.02;;;;;;;18.36;78.68;100113.66;1744986;80;21660;-70
2022/07/20 03:08:06;;;;;;;4.30;3.12;;;;;;;18.20;79.29;100119.19;1743562;80;21506;-70
2022/07/20 03:10:32;;;;;;;4.87;2.75;;;;;;;18.37;79.01;100120.70;1750361;81;21569;-70
2022/07/20 03:12:59;;;;;;;3.22;2.65;;;;;;;18.18;79.04;100121.58;1739833;80;21840;-71
2022/07/20 03:15:26;;;;;;;3.87;3.20;;;;;;;18.22;79.35;100119.93;1749623;79;21459;-69
2022/07/20 03:17:54;;;;;;;;;;;;;;;18.25;79.86;100124.19;1752489;80;21564;-70
2022/07/20 03:20:24;;;;;;;3.30;3.00;;;;;;;18.39;79.74;100115.28;1746280;80;20473;-71
2022/07/20 03:22:51;;;;;;;3.65;2.72;;;;;;;18.35;80.13;100110.64;1741795;80;21510;-73
2022/07/20 03:25:18;;;;;;;3.37;2.87;;;;;;;18.47;79.82;100124.92;1745737;81;21784;-71
2022/07/20 03:27:45;;;;;;;3.45;2.98;;;;;;;18.29;79.70;100119.90;1738246;80;21523;-72
2022/07/20 03:30:13;;;;;;;2.98;2.77;;;;;;;18.46;80.34;100115.25;1739975;80;21523;-73
2022/07/20 03:32:39;;;;;;;3.00;2.45;;;;;;;18.50;80.30;100126.06;1734410;80;21632;-71
2022/07/20 03:35:06;;;;;;;3.27;2.42;;;;;;;18.66;79.53;100124.52;1751647;80;21506;-70
2022/07/20 03:37:33;;;;;;;3.20;2.90;;;;;;;18.59;79.83;100125.89;1746353;80;21562;-72
2022/07/20 03:40:00;;;;;;;3.60;2.45;;;;;;;18.82;79.07;100127.86;1747987;80;21562;-71
2022/07/20 03:42:27;;;;;;;2.90;2.70;;;;;;;18.77;78.73;100129.95;1735366;80;21434;-71
2022/07/20 03:44:54;;;;;;;4.40;2.70;;;;;;;18.73;79.16;100126.29;1735776;81;20962;-69
2022/07/20 03:47:20;;;;;;;3.22;2.83;;;;;;;18.71;79.58;100117.06;1742947;80;20939;-71
2022/07/20 03:49:47;;;;;;;2.60;2.37;;;;;;;19.00;78.99;100119.05;1738476;80;21536;-70
2022/07/20 03:52:14;;;;;;;5.20;3.10;;;;;;;19.16;78.25;100119.31;1733790;80;21096;-73
2022/07/20 03:54:41;;;;;;;3.42;2.70;;;;;;;19.23;78.01;100113.44;1743756;80;21613;-71
2022/07/20 03:57:07;;;;;;;2.75;2.25;;;;;;;19.08;78.49;100111.00;1745136;80;20947;-70
2022/07/20 03:59:34;;;;;;;3.67;2.35;;;;;;;19.15;78.91;100116.27;1740055;80;21463;-70
2022/07/20 04:02:01;;;;;;;5.25;2.42;;;;;;;19.24;78.79;100112.95;1750238;80;21761;-71
2022/07/20 04:04:28;;;;;;;8.73;2.80;;;;;;;19.34;78.57;100108.64;1739028;80;21368;-69
2022/07/20 04:06:57;;;;;;;5.12;2.67;;;;;;;19.43;78.45;100105.32;1740118;80;20935;-70
2022/07/20 04:12:14;;;;;;;2.60;2.30;;;;;;;19.69;77.45;100101.73;1744735;81;21447;-71
2022/07/20 04:14:43;;;;;;;3.27;2.35;;;;;;;19.75;77.02;100102.64;1739177;79;21767;-70
2022/07/20 04:17:09;;;;;;;4.10;2.25;;;;;;;19.75;77.16;100100.81;1743752;80;21467;-70
2022/07/20 04:19:38;;;;;;;2.60;2.40;;;;;;;19.83;76.49;100098.91;1740618;80;21438;-71
2022/07/20 04:22:05;;;;;;;2.58;2.35;;;;;;;20.11;75.60;100095.52;1734146;80;21506;-70
2022/07/20 04:24:31;;;;;;;2.80;2.57;;;;;;;20.14;75.05;100089.96;1752099;80;21580;-67
2022/07/20 04:26:58;;;;;;;4.05;2.30;;;;;;;20.01;75.28;100086.87;1737045;80;21459;-69
2022/07/20 04:29:25;;;;;;;2.20;2.00;;;;;;;20.04;75.63;100085.77;1747223;81;21393;-68
2022/07/20 04:31:52;;;;;;;2.87;2.67;;;;;;;20.28;74.83;100080.39;1747413;80;21439;-68
2022/07/20 04:34:18;;;;;;;3.58;2.50;;;;;;;20.40;74.20;100081.30;1752061;79;21554;-68
2022/07/20 04:36:45;;;;;;;2.80;2.55;;;;;;;20.55;73.19;100073.89;1734021;81;21507;-68
2022/07/20 04:39:12;;;;;;;3.10;2.72;;;;;;;20.59;73.26;100064.70;1743526;80;21792;-68
2022/07/20 04:41:38;;;;;;;6.50;2.60;;;;;;;20.59;73.26;100064.70;1741012;80;21665;-68
2022/07/20 04:44:06;;;;;;;2.75;2.55;;;;;;;20.48;73.94;100066.02;1739819;80;21538;-67
2022/07/20 04:46:32;;;;;;;2.67;2.47;;;;;;;20.48;73.94;100066.02;1740340;80;21543;-67
2022/07/20 04:48:59;;;;;;;3.30;2.58;;;;;;;20.70;73.47;100066.08;1742255;80;21053;-66
2022/07/20 04:51:25;;;;;;;2.52;2.30;;;;;;;20.70;73.47;100066.08;1749557;79;21832;-68
2022/07/20 04:53:52;;;;;;;3.33;2.62;;;;;;;20.90;72.21;100058.30;1735268;80;21403;-69
2022/07/20 04:56:20;;;;;;;3.12;2.58;;;;;;;20.88;72.02;100050.89;1726309;80;21078;-68
2022/07/20 04:58:50;;;;;;;2.67;2.47;;;;;;;20.88;71.84;100051.73;1742243;80;21447;-68
2022/07/20 05:01:15;;;;;;;2.60;2.40;;;;;;;20.95;70.79;100043.59;1749674;81;21601;-68
2022/07/20 05:03:42;;;;;;;2.42;2.10;;;;;;;21.08;70.69;100036.78;1749098;80;21781;-67
2022/07/20 05:06:09;;;;;;;4.40;2.72;;;;;;;21.24;69.77;100030.19;1746552;79;21498;-68
2022/07/20 05:08:36;;;;;;;2.58;2.37;;;;;;;21.30;69.87;100031.86;1732413;80;21431;-67
2022/07/20 05:11:03;;;;;;;3.37;2.85;;;;;;;21.45;69.08;100027.11;1742879;80;21100;-68
2022/07/20 05:13:29;;;;;;;2.55;2.33;;;;;;;21.45;69.08;100027.11;1743191;81;21006;-67
2022/07/20 05:15:56;;;;;;;3.60;2.40;;;;;;;21.60;69.21;100020.14;1735459;80;22173;-68
2022/07/20 05:18:22;;;;;;;2.95;2.37;;;;;;;21.60;69.21;100020.14;1744505;80;21502;-68
2022/07/20 05:20:49;;;;;;;4.30;2.40;;;;;;;21.74;68.32;100010.49;1730132;81;21702;-68
2022/07/20 05:23:18;;;;;;;2.95;2.55;;;;;;;22.01;68.03;100005.96;1737138;80;21494;-67
2022/07/20 05:25:44;;;;;;;2.30;2.10;;;;;;;22.08;66.10;99995.59;1722653;81;21593;-66
2022/07/20 05:28:11;;;;;;;2.58;2.37;;;;;;;22.08;66.10;99995.59;1719658;81;22219;-71
2022/07/20 05:30:40;;;;;;;2.95;2.12;;;;;;;22.12;65.57;100000.54;1718365;80;21506;-64
2022/07/20 05:33:07;;;;;;;2.92;2.50;;;;;;;21.99;65.84;99996.38;1722425;80;25469;-62
2022/07/20 05:35:34;;;;;;;2.17;2.05;;;;;;;22.04;66.62;99988.31;1730098;80;21468;-63
2022/07/20 05:38:01;;;;;;;3.00;2.70;;;;;;;22.04;66.62;99988.31;1723989;80;21475;-63
2022/07/20 05:40:28;;;;;;;2.42;2.27;;;;;;;22.14;65.48;99978.50;1741136;81;21788;-65
2022/07/20 05:42:55;;;;;;;3.67;2.70;;;;;;;22.23;64.99;99980.88;1721240;81;21571;-63
2022/07/20 05:45:23;;;;;;;4.80;2.60;;;;;;;22.38;64.84;99968.02;1723008;80;21574;-63
2022/07/20 05:47:51;;;;;;;4.97;2.67;;;;;;;22.44;63.59;99971.50;1740031;80;21496;-62
2022/07/20 05:50:17;;;;;;;2.83;2.52;;;;;;;22.44;63.59;99971.50;1743506;80;21483;-61
2022/07/20 05:52:44;;;;;;;3.47;3.02;;;;;;;22.52;63.95;99972.16;1731061;80;22055;-62
2022/07/20 05:55:11;;;;;;;2.95;2.70;;;;;;;22.63;61.80;99958.67;1734320;80;21568;-62
2022/07/20 05:57:38;;;;;;;2.52;2.33;;;;;;;22.63;61.80;99958.67;1736899;81;21443;-62
2022/07/20 06:00:07;;;;;;;4.53;2.35;;;;;;;22.62;62.06;99962.82;1733351;80;27070;-62
2022/07/20 06:02:34;;;;;;;3.05;2.80;;;;;;;22.73;62.09;99966.27;1719516;80;21506;-62
2022/07/20 06:05:00;;;;;;;3.00;2.77;;;;;;;22.77;61.19;99957.44;1728611;80;21754;-62
2022/07/20 06:07:27;;;;;;;4.70;2.70;;;;;;;23.04;61.28;99950.64;1739935;80;21599;-62
2022/07/20 06:09:54;;;;;;;3.63;2.53;;;;;;;22.99;61.84;99951.02;1726656;80;21613;-62
2022/07/20 06:12:20;;;;;;;2.70;2.50;;;;;;;23.03;61.36;99943.55;1722776;80;21915;-62
2022/07/20 06:14:49;;;;;;;2.70;2.50;;;;;;;23.15;60.29;99937.11;1727516;80;20936;-61
2022/07/20 06:17:16;;;;;;;2.77;2.40;;;;;;;23.18;60.67;99940.00;1729257;80;21820;-61
2022/07/20 06:19:43;;;;;;;;;;;;;;;23.24;61.38;99936.75;1725507;80;22217;-64
2022/07/20 06:22:10;;;;;;;2.67;2.10;;;;;;;23.37;59.84;99929.27;1727662;80;20212;-65
2022/07/20 06:24:36;;;;;;;2.80;2.47;;;;;;;23.41;59.47;99928.49;1730625;80;21444;-65
2022/07/20 06:27:03;;;;;;;2.85;2.65;;;;;;;23.44;59.23;99927.72;1714000;80;21467;-65
2022/07/20 06:29:30;;;;;;;2.67;2.40;;;;;;;23.56;58.94;99932.94;1732426;81;21808;-64
2022/07/20 06:31:56;;;;;;;2.85;2.55;;;;;;;23.63;59.15;99930.88;1725986;80;21096;-64
2022/07/20 06:34:23;;;;;;;4.20;2.67;;;;;;;23.85;58.56;99925.73;1729771;80;21030;-64
2022/07/20 06:36:50;;;;;;;2.98;2.77;;;;;;;23.99;57.35;99917.70;1719930;81;21023;-65
2022/07/20 06:39:16;;;;;;;3.93;2.73;;;;;;;24.20;55.56;99914.81;1733508;80;21512;-64
2022/07/20 06:41:43;;;;;;;4.15;2.60;;;;;;;24.24;55.24;99904.62;1727587;81;21749;-64
2022/07/20 06:44:10;;;;;;;4.70;2.98;;;;;;;24.29;54.57;99898.31;1720360;80;21533;-64
2022/07/20 06:46:37;;;;;;;5.17;2.85;;;;;;;24.36;55.23;99900.77;1721351;81;21431;-66
2022/07/20 06:49:05;;;;;;;4.47;2.65;;;;;;;24.49;54.58;99901.27;1722570;80;20975;-67
2022/07/20 06:51:32;;;;;;;2.70;2.50;;;;;;;24.57;54.67;99897.02;1736518;79;21530;-67
2022/07/20 06:53:58;;;;;;;2.80;2.60;;;;;;;24.51;54.05;99897.09;1723978;80;21542;-64
2022/07/20 06:56:25;;;;;;;3.62;2.77;;;;;;;24.39;54.13;99892.42;1725767;81;21654;-65
2022/07/20 06:58:52;;;;;;;3.30;3.00;;;;;;;24.14;53.93;99867.05;1721557;80;21502;-64
2022/07/20 07:01:18;;;;;;;5.80;2.65;;;;;;;24.31;54.47;99896.33;1724758;80;21511;-62
2022/07/20 07:03:45;;;;;;;3.05;2.80;;;;;;;24.35;54.14;99894.19;1722383;81;21555;-62
2022/07/20 07:06:11;;;;;;;3.92;3.10;;;;;;;24.42;54.11;99894.78;1737201;80;21930;-63
2022/07/20 07:08:39;;;;;;;4.33;3.33;;;;;;;24.40;53.42;99894.59;1733312;80;21412;-63
2022/07/20 07:11:07;;;;;;;3.40;2.42;;;;;;;24.45;53.51;99890.47;1727771;80;20946;-63
2022/07/20 07:13:35;;;;;;;3.65;2.98;;;;;;;24.48;53.83;99888.80;1723905;81;21501;-62
2022/07/20 07:16:04;;;;;;;3.98;3.20;;;;;;;24.60;53.16;99881.91;1735538;80;21451;-62
2022/07/20 07:18:32;;;;;;;5.80;2.90;;;;;;;24.76;52.42;99874.55;1735997;80;21750;-62
2022/07/20 07:20:59;;;;;;;3.50;3.17;;;;;;;24.75;52.88;99872.37;1736247;81;21542;-63
2022/07/20 07:23:26;;;;;;;3.65;3.27;;;;;;;24.83;53.00;99861.69;1727699;80;21521;-63
2022/07/20 07:25:53;;;;;;;7.40;3.25;;;;;;;24.97;53.17;99857.61;1734956;81;21549;-62
2022/07/20 07:28:21;;;;;;;4.03;3.17;;;;;;;25.05;51.89;99852.33;1741355;80;21581;-61
2022/07/20 07:30:50;;;;;;;3.75;3.35;;;;;;;25.14;52.44;99858.61;1730538;80;21568;-63
2022/07/20 07:33:17;;;;;;;3.33;3.08;;;;;;;25.20;51.19;99841.87;1735521;80;21494;-62
2022/07/20 07:35:45;;;;;;;4.47;3.05;;;;;;;25.31;51.38;99842.14;1736698;81;21542;-63
2022/07/20 07:38:13;;;;;;;3.57;3.33;;;;;;;25.28;51.66;99841.59;1744116;79;21526;-63
2022/07/20 07:40:39;;;;;;;3.45;3.25;;;;;;;25.21;52.16;99839.51;1748075;80;21426;-62
2022/07/20 07:43:06;;;;;;;3.60;3.30;;;;;;;25.23;51.25;99833.50;1743375;81;21816;-62
2022/07/20 07:45:33;;;;;;;5.33;3.27;;;;;;;25.23;52.34;99833.50;1737737;80;21506;-63
2022/07/20 07:48:00;;;;;;;4.08;3.20;;;;;;;25.46;51.84;99828.97;1740157;80;21657;-65
2022/07/20 07:50:27;;;;;;;6.33;3.30;;;;;;;25.57;51.88;99819.80;1737880;81;21538;-62
2022/07/20 07:52:53;;;;;;;3.58;3.27;;;;;;;25.61;51.81;99814.43;1740922;81;21573;-63
2022/07/20 07:55:20;;;;;;;3.72;3.42;;;;;;;25.66;51.73;99820.19;1744806;80;21812;-62
2022/07/20 07:57:47;;;;;;;3.67;3.37;;;;;;;25.65;50.60;99823.88;1740901;80;21522;-62
2022/07/20 08:00:16;;;;;;;4.03;3.50;;;;;;;25.51;49.23;99805.13;1747420;80;22193;-64
2022/07/20 08:02:42;;;;;;;3.67;3.37;;;;;;;25.33;49.74;99807.00;1732432;80;22134;-60
2022/07/20 08:05:09;;;;;;;4.17;3.20;;;;;;;25.42;50.21;99803.37;1743802;80;21459;-61
2022/07/20 08:07:39;;;;;;;3.87;3.27;;;;;;;25.69;49.93;99801.52;1739431;80;21865;-62
2022/07/20 08:10:05;;;;;;;5.22;3.70;;;;;;;25.57;50.38;99802.30;1747085;80;21869;-61
2022/07/20 08:12:34;;;;;;;3.52;3.20;;;;;;;25.63;50.58;99800.30;1742250;79;21538;-65
2022/07/20 08:15:01;;;;;;;;;;;;;;;25.60;50.16;99799.30;1739120;80;21715;-62
2022/07/20 08:17:27;;;;;;;3.85;3.05;;;;;;;25.55;49.70;99796.23;1736116;80;20425;-61
2022/07/20 08:19:54;;;;;;;4.22;3.83;;;;;;;25.64;49.16;99808.73;1728255;81;21819;-62
2022/07/20 08:22:21;;;;;;;3.67;3.37;;;;;;;25.57;49.49;99793.70;1737376;80;21468;-62
2022/07/20 08:24:47;;;;;;;4.30;3.90;;;;;;;25.64;49.19;99788.55;1735025;80;21476;-62
2022/07/20 08:27:16;;;;;;;4.12;3.47;;;;;;;25.69;49.52;99788.05;1726686;80;21504;-62
2022/07/20 08:29:43;;;;;;;;;;;;;;;25.77;50.37;99786.77;1720498;80;21574;-62
2022/07/20 08:32:10;;;;;;;4.20;3.67;;;;;;;25.93;48.07;99773.91;1722842;80;21882;-61
2022/07/20 08:34:38;;;;;;;4.47;4.05;;;;;;;26.03;48.47;99768.74;1734499;80;21448;-61
2022/07/20 08:37:05;;;;;;;3.40;3.10;;;;;;;26.09;48.61;99762.34;1732598;80;21535;-61
2022/07/20 08:39:32;;;;;;;6.33;3.92;;;;;;;26.27;48.16;99759.03;1725962;81;21547;-61
2022/07/20 08:42:01;;;;;;;4.00;3.60;;;;;;;26.39;48.39;99767.16;1729029;80;21554;-60
2022/07/20 08:44:28;;;;;;;4.28;3.87;;;;;;;26.56;48.17;99764.00;1731008;80;21747;-60
2022/07/20 08:46:55;;;;;;;4.25;3.85;;;;;;;26.65;47.20;99748.69;1730853;81;21490;-62
2022/07/20 08:49:22;;;;;;;6.75;3.70;;;;;;;26.80;47.67;99741.64;1736881;80;21105;-61
2022/07/20 08:51:48;;;;;;;3.62;3.33;;;;;;;26.78;47.19;99744.98;1727013;80;21507;-61
2022/07/20 08:54:15;;;;;;;5.55;3.52;;;;;;;26.82;47.50;99736.56;1728161;80;21602;-62
2022/07/20 08:56:42;;;;;;;6.72;3.30;;;;;;;26.89;46.86;99726.80;1734779;81;22100;-61
2022/07/20 08:59:08;;;;;;;4.05;3.70;;;;;;;26.93;46.74;99725.44;1727242;80;21076;-62
2022/07/20 09:01:35;;;;;;;3.90;3.50;;;;;;;27.00;46.74;99720.53;1728261;80;21445;-62
2022/07/20 09:04:09;;;;;;;3.98;3.67;;;;;;;27.03;46.86;99718.02;1718843;81;21546;-62
2022/07/20 09:06:47;;;;;;;3.75;3.20;;;;;;;27.06;46.23;99713.62;1735747;80;21527;-61
2022/07/20 09:09:14;;;;;;;3.60;3.30;;;;;;;27.21;45.40;99708.37;1713862;81;21783;-62
2022/07/20 09:11:41;;;;;;;3.80;3.50;;;;;;;27.29;46.60;99711.07;1728105;79;21601;-61
2022/07/20 09:14:07;;;;;;;4.45;3.40;;;;;;;26.97;45.95;99702.02;1724379;81;21136;-61
2022/07/20 09:16:42;;;;;;;4.75;3.12;;;;;;;26.77;46.00;99702.86;1743243;80;21026;-61
2022/07/20 09:19:06;;;;;;;7.12;3.40;;;;;;;26.90;45.64;99683.95;1750065;80;21434;-62
2022/07/20 09:21:33;;;;;;;6.67;3.33;;;;;;;26.85;46.70;99684.99;1737767;80;21945;-61
2022/07/20 09:24:05;;;;;;;3.75;3.45;;;;;;;26.66;46.01;99670.84;1731276;80;21451;-62
2022/07/20 09:26:32;;;;;;;4.58;3.70;;;;;;;26.77;45.67;99665.62;1728102;80;21567;-61
2022/07/20 09:29:03;;;;;;;6.53;3.22;;;;;;;26.71;44.92;99658.18;1739607;81;21487;-63
2022/07/20 09:31:34;;;;;;;7.40;3.65;;;;;;;26.60;44.91;99651.30;1726550;80;20995;-65
2022/07/20 09:34:13;;;;;;;3.40;3.10;;;;;;;26.59;45.61;99675.19;1735373;80;21526;-67
2022/07/20 09:36:44;;;;;;;5.15;3.08;;;;;;;26.69;45.98;99688.04;1734815;80;21644;-64
2022/07/20 09:39:14;;;;;;;3.83;3.50;;;;;;;26.79;45.16;99661.73;1737395;80;21522;-70
2022/07/20 09:41:47;;;;;;;5.33;3.65;;;;;;;26.90;45.04;99656.50;1731696;80;21550;-67
2022/07/20 09:44:25;;;;;;;3.70;3.40;;;;;;;27.01;45.43;99647.17;1689865;83;21767;-66
2022/07/20 09:46:52;;;;;;;3.62;3.30;;;;;;;27.12;44.91;99661.66;1733297;81;21917;-64
2022/07/20 09:49:21;;;;;;;4.40;3.83;;;;;;;27.09;44.02;99643.65;1745866;80;21398;-64
2022/07/20 09:51:50;;;;;;;4.55;3.52;;;;;;;27.10;45.33;99632.66;1741548;80;21615;-64
2022/07/20 09:54:18;;;;;;;5.70;3.20;;;;;;;27.15;44.08;99624.89;1717792;81;21535;-63
2022/07/20 09:56:46;;;;;;;;;;;;;;;27.17;44.12;99613.42;1732821;80;21704;-63
2022/07/20 09:59:13;;;;;;;7.53;3.65;;;;;;;27.31;44.44;99618.64;1734678;80;21855;-64
2022/07/20 10:01:44;;;;;;;3.95;3.35;;;;;;;27.44;43.89;99600.52;1723593;80;27120;-62
2022/07/20 10:04:13;;;;;;;3.77;3.02;;;;;;;27.55;43.74;99605.52;1727504;80;21664;-62
2022/07/20 10:06:44;;;;;;;;;;;;;;;27.54;43.97;99602.51;1733405;80;21591;-62
2022/07/20 10:09:11;;;;;;;4.62;3.47;;;;;;;27.44;42.87;99589.72;1728424;80;20431;-62
2022/07/20 10:11:38;;;;;;;3.40;3.20;;;;;;;27.48;44.12;99587.51;1731505;80;21767;-62
2022/07/20 10:14:05;;;;;;;3.90;3.55;;;;;;;27.44;44.45;99585.67;1745835;80;21530;-62
2022/07/20 10:16:54;;;;;;;7.53;3.65;;;;;;;27.51;43.79;99577.20;1726157;81;21484;-63
2022/07/20 10:19:42;;;;;;;6.72;3.58;;;;;;;27.63;44.73;99560.59;1712241;81;21452;-62
2022/07/20 10:22:09;;;;;;;4.33;3.12;;;;;;;27.82;44.25;99572.31;1724393;80;21445;-62
2022/07/20 10:24:38;;;;;;;6.25;3.20;;;;;;;27.90;43.39;99561.47;1729622;80;22073;-63
2022/07/20 10:30:21;;;;;;;7.47;3.70;;;;;;;28.17;42.94;99544.37;1773538;78;22682;-60
2022/07/20 10:32:57;;;;;;;7.05;3.65;;;;;;;28.67;41.37;99539.34;1737692;80;21569;-61
2022/07/20 10:35:28;;;;;;;4.15;3.17;;;;;;;28.66;41.84;99531.75;1739888;80;21407;-61
2022/07/20 10:37:55;;;;;;;7.03;3.95;;;;;;;28.54;42.40;99527.84;1729064;80;21494;-63
2022/07/20 10:40:23;;;;;;;;;;;;;;;28.57;42.67;99523.92;1755027;80;21412;-59
2022/07/20 10:43:13;;;;;;;7.90;3.75;;;;;;;28.71;42.65;99523.93;1734438;80;20424;-59
2022/07/20 10:45:39;;;;;;;9.15;3.15;;;;;;;28.69;41.42;99512.45;1745790;80;21601;-60
2022/07/20 10:48:15;;;;;;;6.87;3.10;;;;;;;28.70;41.97;99499.24;1748261;80;21868;-61
2022/07/20 10:50:54;;;;;;;3.50;3.20;;;;;;;28.82;42.15;99498.28;1743131;80;21492;-61
2022/07/20 10:53:28;;;;;;;3.60;3.30;;;;;;;28.79;40.97;99489.17;1741546;80;21022;-62
2022/07/20 10:55:58;;;;;;;3.70;3.40;;;;;;;28.81;41.02;99482.23;1745416;80;21435;-62
2022/07/20 10:58:32;;;;;;;9.08;3.25;;;;;;;28.67;40.76;99483.89;1756215;80;20926;-61
2022/07/20 11:01:06;;;;;;;3.35;3.05;;;;;;;28.76;41.60;99483.30;1744014;80;21919;-62
2022/07/20 11:03:48;;;;;;;4.75;3.45;;;;;;;28.64;41.76;99476.18;1728597;80;21589;-62
2022/07/20 11:06:18;;;;;;;6.97;3.00;;;;;;;28.80;40.81;99477.84;1751914;80;21044;-62
2022/07/20 11:08:55;;;;;;;4.42;3.12;;;;;;;28.72;40.21;99472.84;1742997;80;21539;-62
2022/07/20 11:11:30;;;;;;;4.15;3.22;;;;;;;28.65;41.06;99476.48;1748397;80;21392;-63
2022/07/20 11:13:58;;;;;;;7.08;3.77;;;;;;;28.55;40.65;99463.25;1759012;80;21399;-63
2022/07/20 11:16:26;;;;;;;4.15;3.15;;;;;;;28.64;40.65;99454.02;1746271;80;20950;-63
2022/07/20 11:18:57;;;;;;;4.33;3.22;;;;;;;28.72;41.04;99466.60;1750375;79;21475;-61
2022/07/20 11:21:32;;;;;;;5.22;3.05;;;;;;;28.85;40.46;99451.06;1751274;80;21610;-62
2022/07/20 11:23:59;;;;;;;4.85;3.42;;;;;;;28.90;40.15;99449.47;1750683;80;21424;-62
2022/07/20 11:26:26;;;;;;;4.35;3.10;;;;;;;28.96;39.70;99445.17;1754517;80;21806;-62
2022/07/20 11:28:55;;;;;;;4.15;3.37;;;;;;;28.96;39.56;99447.05;1747296;80;21550;-61
2022/07/20 11:31:26;;;;;;;7.37;3.75;;;;;;;28.81;39.58;99433.02;1740748;79;21022;-61
2022/07/20 11:33:54;;;;;;;9.08;3.60;;;;;;;28.63;39.47;99424.45;1761463;80;21589;-61
2022/07/20 11:36:27;;;;;;;4.55;3.30;;;;;;;28.61;39.61;99419.22;1757024;80;21495;-62
2022/07/20 11:38:59;;;;;;;3.72;3.40;;;;;;;28.68;39.81;99406.63;1753199;80;21761;-62
2022/07/20 11:41:36;;;;;;;3.42;3.12;;;;;;;28.75;39.84;99408.08;1739706;81;21085;-62
2022/07/20 11:44:05;;;;;;;5.30;3.87;;;;;;;28.81;40.85;99406.48;1743237;80;21511;-63